Dobrodošli na spletni strani vremenske postaje Senovo. Vse informacije so informativnega značaja, saj vremenska postaja ni del državne mreže meteoroloških postaj. AKTUALNIH OBVESTIL NI.


Sneg/Led Od: 22-02-2018 00:00 Do: 23-02-2018 23:59 Opozorilo za: Sneg/Led Stopnja: Rumena info button
Veter Od: 22-02-2018 00:00 Do: 23:59 Opozorilo za: Veter Stopnja: Rumena info button

Pogled proti Armezu več informacij Pogled proti Armezu


Lisca več informacij Lisca


Radar strel več informacij blitzortung!


opozorilo za sneg/led več informacij rain snow radar


Obiščite še:

Template documentation
and downloads

And another site



Weather Underground, zgodovina - Tekstovno

Dnevni povzetek za Februar 11, 2018 Enote:  Angleško    Metrično   Obe
« Predhodni Dan
Naslednji Dan »
Dnevni Tedenski Mesečni Letni Po meri
  Višja: Nižja: Povprečje:
Temperatura: TemperatureC °F -2.9 °F 0.3 °F
Točka rosišča: DewpointC °F -7.1 °F -4 °F
Vlažnost: Humidity % 51 % 74 %
Hitrost vetra: WindSpeedKMH mph 0.0 mph 1.2 mph
Sunki vetra: WindSpeedGustKMH mph - -
Veter:- - SSW
Zračni tlak: PressurehPa in 1007.0 in -
Padavine: 0.0 in    
Historical Graphs
 
 
Tabelarni podarki za Februar 11, 2018
Čas Temperatura Točka rosišča Zračni tlak Veter Hitrost vetra Sunki vetra Vlažnost Intenziteta padavin (urna)
TemperatureC °F DewpointC °F PressurehPa in Calm     Humidity % HourlyPrecipMM in
00:01 1.0 °F -2.9 °F 1013.1 in SE 5.3 mph 9.7 mph 75 % 0.0 in
00:06 0.9 °F -3.1 °F 1013.1 in SE 4.2 mph 6.4 mph 75 % 0.0 in
00:11 0.9 °F -3.1 °F 1013.1 in ESE 3.2 mph 6.1 mph 75 % 0.0 in
00:16 0.9 °F -2.8 °F 1013.1 in ESE 2.9 mph 5.0 mph 76 % 0.0 in
00:21 0.9 °F -2.8 °F 1013.1 in ESE 3.5 mph 5.0 mph 76 % 0.0 in
00:26 0.9 °F -2.8 °F 1013.1 in SE 2.9 mph 4.7 mph 76 % 0.0 in
00:28 0.8 °F -2.9 °F 1013.1 in SE 2.7 mph 4.7 mph 76 % 0.0 in
00:33 0.7 °F -3.1 °F 1013.1 in SSE 2.3 mph 4.0 mph 76 % 0.0 in
00:38 0.7 °F -3.1 °F 1013.1 in SE 2.6 mph 5.0 mph 76 % 0.0 in
00:43 0.6 °F -3.2 °F 1013.1 in ESE 1.3 mph 5.0 mph 76 % 0.0 in
00:48 0.6 °F -3.2 °F 1013.1 in Calm     76 % 0.0 in
00:53 0.5 °F -3.2 °F 1013.1 in West 0.2 mph 3.2 mph 76 % 0.0 in
00:58 0.5 °F -3.2 °F 1013.1 in WSW 0.8 mph 4.7 mph 76 % 0.0 in
01:03 0.5 °F -3.2 °F 1013.1 in SW 0.8 mph 4.7 mph 76 % 0.0 in
01:08 0.4 °F -3.3 °F 1013.1 in SSW 0.5 mph 2.1 mph 76 % 0.0 in
01:13 0.4 °F -3.3 °F 1013.1 in SSW 0.2 mph 2.1 mph 76 % 0.0 in
01:18 0.4 °F -3.3 °F 1013.1 in South 0.6 mph 3.2 mph 76 % 0.0 in
01:23 0.4 °F -3.3 °F 1013.1 in SSE 1.0 mph 3.2 mph 76 % 0.0 in
01:28 0.4 °F -3.2 °F 1013.1 in SSE 0.5 mph 4.3 mph 77 % 0.0 in
01:33 0.3 °F -3.3 °F 1013.1 in SE 1.3 mph 4.7 mph 77 % 0.0 in
01:38 0.3 °F -3.3 °F 1013.1 in SE 1.8 mph 4.7 mph 77 % 0.0 in
01:43 0.3 °F -3.3 °F 1013.1 in SE 1.4 mph 3.5 mph 77 % 0.0 in
01:48 0.3 °F -3.3 °F 1013.1 in SSE 1.6 mph 4.0 mph 77 % 0.0 in
01:53 0.3 °F -3.3 °F 1013.1 in SSE 0.8 mph 4.0 mph 77 % 0.0 in
01:58 0.3 °F -3.3 °F 1013.1 in ESE 0.6 mph 4.7 mph 77 % 0.0 in
02:03 0.3 °F -3.3 °F 1013.1 in ESE 0.6 mph 4.7 mph 77 % 0.0 in
02:08 0.3 °F -3.3 °F 1013.1 in Calm     77 % 0.0 in
02:13 0.3 °F -3.3 °F 1013.1 in Calm     77 % 0.0 in
02:19 0.3 °F -3.3 °F 1013.1 in SSE 0.3 mph 4.7 mph 77 % 0.0 in
02:24 0.2 °F -3.3 °F 1012.1 in SE 1.3 mph 4.7 mph 77 % 0.0 in
02:29 0.2 °F -3.3 °F 1012.1 in SE 1.3 mph 4.0 mph 77 % 0.0 in
02:34 0.1 °F -3.4 °F 1012.1 in SE 0.5 mph 2.6 mph 77 % 0.0 in
02:39 0.1 °F -3.4 °F 1012.1 in SE 0.3 mph 4.0 mph 77 % 0.0 in
02:44 0.1 °F -3.3 °F 1012.1 in SE 1.0 mph 4.0 mph 78 % 0.0 in
02:49 0.0 °F -3.4 °F 1012.1 in East 1.3 mph 4.3 mph 78 % 0.0 in
02:54 0.1 °F -3.3 °F 1012.1 in ESE 1.3 mph 6.4 mph 78 % 0.0 in
02:59 0.1 °F -3.3 °F 1012.1 in SE 1.3 mph 6.4 mph 78 % 0.0 in
03:04 0.1 °F -3.3 °F 1012.1 in ESE 0.5 mph 3.5 mph 78 % 0.0 in
03:09 0.1 °F -3.3 °F 1012.1 in Calm     78 % 0.0 in
03:14 -0.2 °F -3.6 °F 1012.1 in Calm   3.5 mph 78 % 0.0 in
03:19 -0.3 °F -3.7 °F 1012.1 in NW 0.5 mph 3.5 mph 78 % 0.0 in
03:24 -0.3 °F -3.7 °F 1012.1 in WSW 0.8 mph 4.0 mph 78 % 0.0 in
03:29 -0.3 °F -3.7 °F 1012.1 in SW 1.9 mph 4.3 mph 78 % 0.0 in
03:34 -0.8 °F -4.2 °F 1012.1 in SW 1.4 mph 4.3 mph 78 % 0.0 in
03:39 -0.8 °F -4.2 °F 1012.1 in Calm   1.8 mph 78 % 0.0 in
03:44 -1.0 °F -4.3 °F 1012.1 in SSW 0.6 mph 4.7 mph 78 % 0.0 in
03:49 -1.2 °F -4.6 °F 1012.1 in SSW 0.6 mph 4.7 mph 78 % 0.0 in
03:54 -1.2 °F -4.6 °F 1012.1 in Calm     78 % 0.0 in
03:59 -1.2 °F -4.6 °F 1012.1 in Calm     78 % 0.0 in
04:04 -1.4 °F -4.7 °F 1012.1 in Calm     78 % 0.0 in
04:09 -1.4 °F -4.7 °F 1012.1 in Calm     78 % 0.0 in
04:14 -1.6 °F -4.9 °F 1012.1 in Calm     78 % 0.0 in
04:19 -1.7 °F -5.1 °F 1012.1 in Calm     78 % 0.0 in
04:24 -1.7 °F -4.9 °F 1012.1 in Calm     79 % 0.0 in
04:29 -1.7 °F -4.9 °F 1012.1 in Calm     79 % 0.0 in
04:34 -1.7 °F -4.9 °F 1012.1 in Calm     79 % 0.0 in
04:39 -1.7 °F -4.9 °F 1012.1 in SSW 0.2 mph 3.5 mph 79 % 0.0 in
04:44 -1.7 °F -4.9 °F 1012.1 in SSW 0.3 mph 3.5 mph 79 % 0.0 in
04:49 -1.6 °F -4.8 °F 1012.1 in NNW 0.3 mph 2.1 mph 79 % 0.0 in
04:54 -1.6 °F -4.8 °F 1012.1 in Calm   2.6 mph 79 % 0.0 in
04:59 -1.6 °F -4.6 °F 1012.1 in West 0.3 mph 2.6 mph 80 % 0.0 in
05:04 -1.6 °F -4.6 °F 1012.1 in West 0.3 mph 2.6 mph 80 % 0.0 in
05:09 -1.6 °F -4.6 °F 1012.1 in Calm     80 % 0.0 in
05:14 -1.6 °F -4.6 °F 1012.1 in Calm     80 % 0.0 in
05:19 -1.6 °F -4.6 °F 1012.1 in Calm     80 % 0.0 in
05:24 -1.6 °F -4.6 °F 1012.1 in Calm     80 % 0.0 in
05:29 -1.7 °F -4.7 °F 1012.1 in Calm     80 % 0.0 in
05:31 -1.8 °F -4.8 °F 1012.1 in Calm     80 % 0.0 in
05:36 -1.8 °F -4.8 °F 1012.1 in Calm     80 % 0.0 in
05:41 -1.9 °F -4.9 °F 1012.1 in Calm     80 % 0.0 in
05:46 -2.0 °F -4.8 °F 1012.1 in Calm     81 % 0.0 in
05:51 -2.2 °F -5.0 °F 1012.1 in Calm     81 % 0.0 in
05:56 -2.2 °F -5.0 °F 1011.1 in Calm     81 % 0.0 in
06:01 -2.3 °F -5.1 °F 1011.1 in Calm     81 % 0.0 in
06:06 -2.4 °F -5.2 °F 1011.1 in Calm     81 % 0.0 in
06:11 -2.6 °F -5.4 °F 1012.1 in Calm     81 % 0.0 in
06:16 -2.6 °F -5.4 °F 1012.1 in Calm     81 % 0.0 in
06:21 -2.8 °F -5.6 °F 1012.1 in SW 0.2 mph 4.0 mph 81 % 0.0 in
06:26 -2.8 °F -5.6 °F 1012.1 in WNW 0.5 mph 4.0 mph 81 % 0.0 in
06:31 -2.8 °F -5.4 °F 1012.1 in NW 1.4 mph 3.5 mph 82 % 0.0 in
06:36 -2.8 °F -5.4 °F 1012.1 in NW 1.1 mph 3.5 mph 82 % 0.0 in
06:41 -2.8 °F -5.4 °F 1011.1 in North 0.2 mph   82 % 0.0 in
06:46 -2.7 °F -5.3 °F 1011.1 in Calm     82 % 0.0 in
06:51 -2.7 °F -5.3 °F 1011.1 in Calm     82 % 0.0 in
06:56 -2.6 °F -5.1 °F 1012.1 in Calm     83 % 0.0 in
07:01 -2.6 °F -5.1 °F 1012.1 in Calm     83 % 0.0 in
07:06 -2.6 °F -5.1 °F 1012.1 in Calm     83 % 0.0 in
07:11 -2.6 °F -5.1 °F 1012.1 in Calm     83 % 0.0 in
07:16 -2.6 °F -5.1 °F 1012.1 in Calm     83 % 0.0 in
07:21 -2.6 °F -5.1 °F 1012.1 in Calm     83 % 0.0 in
07:26 -2.6 °F -5.1 °F 1012.1 in Calm     83 % 0.0 in
07:31 -2.7 °F -5.1 °F 1012.1 in Calm     84 % 0.0 in
07:36 -2.7 °F -5.1 °F 1012.1 in Calm     84 % 0.0 in
07:41 -2.8 °F -5.1 °F 1012.1 in Calm     84 % 0.0 in
07:46 -2.8 °F -5.1 °F 1012.1 in Calm     84 % 0.0 in
07:51 -2.8 °F -5.1 °F 1012.1 in Calm     84 % 0.0 in
07:56 -2.9 °F -5.2 °F 1012.1 in Calm     84 % 0.0 in
08:01 -2.8 °F -5.1 °F 1012.1 in South 0.3 mph 2.6 mph 84 % 0.0 in
08:06 -2.8 °F -5.1 °F 1012.1 in South 0.3 mph 2.6 mph 84 % 0.0 in
08:11 -2.8 °F -5.1 °F 1012.1 in Calm     84 % 0.0 in
08:16 -2.8 °F -5.1 °F 1012.1 in Calm     84 % 0.0 in
08:21 -2.8 °F -4.9 °F 1012.1 in Calm     85 % 0.0 in
08:26 -2.7 °F -4.9 °F 1012.1 in Calm     85 % 0.0 in
08:31 -2.6 °F -4.8 °F 1012.1 in Calm     85 % 0.0 in
08:36 -2.5 °F -4.7 °F 1012.1 in Calm     85 % 0.0 in
08:41 -2.5 °F -4.7 °F 1012.1 in Calm     85 % 0.0 in
08:46 -2.3 °F -4.5 °F 1012.1 in Calm     85 % 0.0 in
08:51 -2.2 °F -4.2 °F 1012.1 in Calm     86 % 0.0 in
08:56 -2.0 °F -4.1 °F 1012.1 in Calm     86 % 0.0 in
09:01 -1.9 °F -3.9 °F 1012.1 in Calm     86 % 0.0 in
09:06 -1.7 °F -3.7 °F 1012.1 in Calm     86 % 0.0 in
09:11 -1.5 °F -3.6 °F 1012.1 in SSE 0.2 mph 2.1 mph 86 % 0.0 in
09:16 -1.4 °F -3.4 °F 1012.1 in SSE 0.3 mph 2.1 mph 86 % 0.0 in
09:21 -1.3 °F -3.3 °F 1012.1 in SSE 0.3 mph 2.1 mph 86 % 0.0 in
09:26 -1.0 °F -2.9 °F 1012.1 in SSE 0.3 mph 2.1 mph 87 % 0.0 in
09:32 -0.8 °F -2.8 °F 1012.1 in SSE 0.2 mph 2.1 mph 86 % 0.0 in
09:37 -0.7 °F -2.8 °F 1012.1 in ESE 1.0 mph 3.5 mph 86 % 0.0 in
09:42 -0.5 °F -2.4 °F 1012.1 in SE 1.4 mph 4.0 mph 87 % 0.0 in
09:47 -0.3 °F -2.2 °F 1012.1 in South 2.1 mph 6.1 mph 87 % 0.0 in
09:52 -0.1 °F -2.0 °F 1012.1 in SSW 3.4 mph 6.1 mph 87 % 0.0 in
09:57 0.2 °F -1.7 °F 1012.1 in South 4.2 mph 5.5 mph 87 % 0.0 in
10:02 0.4 °F -1.5 °F 1012.1 in South 4.2 mph 5.5 mph 87 % 0.0 in
10:07 0.5 °F -1.4 °F 1012.1 in SSW 3.7 mph 4.7 mph 87 % 0.0 in
10:12 0.7 °F -1.2 °F 1012.1 in SSW 2.7 mph 4.7 mph 87 % 0.0 in
10:17 0.9 °F -0.9 °F 1012.1 in SSW 2.9 mph 5.8 mph 88 % 0.0 in
10:22 1.0 °F -0.9 °F 1012.1 in SSW 3.9 mph 6.1 mph 87 % 0.0 in
10:27 1.2 °F -0.7 °F 1012.1 in SSW 4.2 mph 6.1 mph 87 % 0.0 in
10:32 1.4 °F -0.6 °F 1012.1 in South 3.9 mph 5.5 mph 87 % 0.0 in
10:37 1.6 °F -0.3 °F 1012.1 in SSW 2.9 mph 5.8 mph 87 % 0.0 in
10:42 1.7 °F -0.2 °F 1012.1 in SSW 2.7 mph 5.8 mph 87 % 0.0 in
10:47 1.8 °F -0.1 °F 1012.1 in SSW 3.4 mph 4.7 mph 87 % 0.0 in
10:52 1.9 °F -0.1 °F 1012.1 in SSW 3.4 mph 5.0 mph 87 % 0.0 in
10:57 2.1 °F 0.0 °F 1012.1 in SSW 3.4 mph 5.0 mph 86 % 0.0 in
11:02 2.2 °F 0.1 °F 1012.1 in SSW 3.9 mph 5.0 mph 86 % 0.0 in
11:07 2.4 °F 0.3 °F 1012.1 in SSW 3.9 mph 5.8 mph 86 % 0.0 in
11:12 2.8 °F 0.7 °F 1012.1 in SSW 3.9 mph 6.1 mph 86 % 0.0 in
11:17 2.8 °F 0.7 °F 1012.1 in SSW 3.1 mph 6.1 mph 86 % 0.0 in
11:22 2.8 °F 0.7 °F 1012.1 in SSW 2.6 mph 6.1 mph 86 % 0.0 in
11:27 3.4 °F 1.1 °F 1011.1 in SW 3.4 mph 9.3 mph 85 % 0.0 in
11:32 3.6 °F 1.2 °F 1011.1 in SSW 3.5 mph 9.3 mph 84 % 0.0 in
11:37 4.0 °F 1.4 °F 1011.1 in SSW 1.6 mph 4.7 mph 83 % 0.0 in
11:42 4.1 °F 1.4 °F 1011.1 in WSW 0.5 mph 6.4 mph 83 % 0.0 in
11:47 4.1 °F 1.4 °F 1011.1 in SW 1.9 mph 6.4 mph 83 % 0.0 in
11:52 4.1 °F 1.4 °F 1011.1 in SW 2.4 mph 5.0 mph 83 % 0.0 in
11:57 4.8 °F 1.7 °F 1011.1 in SW 1.9 mph 4.7 mph 80 % 0.0 in
12:02 4.8 °F 1.7 °F 1011.1 in ESE 2.1 mph 4.7 mph 80 % 0.0 in
12:05 4.8 °F 1.7 °F 1011.1 in ENE 2.1 mph 5.5 mph 80 % 0.0 in
12:10 4.8 °F 1.3 °F 1011.1 in ENE 3.7 mph 6.1 mph 78 % 0.0 in
12:15 4.8 °F 1.3 °F 1011.1 in ESE 3.7 mph 6.1 mph 78 % 0.0 in
12:20 4.8 °F 1.3 °F 1011.1 in SW 3.4 mph 5.5 mph 78 % 0.0 in
12:25 5.4 °F 1.3 °F 1012.1 in South 2.9 mph 6.1 mph 75 % 0.0 in
12:30 5.4 °F 1.3 °F 1012.1 in SSE 3.4 mph 10.5 mph 75 % 0.0 in
12:35 5.5 °F 1.1 °F 1012.1 in SE 3.2 mph 10.5 mph 73 % 0.0 in
12:40 5.5 °F 1.1 °F 1011.1 in East 2.3 mph 7.9 mph 73 % 0.0 in
12:45 5.5 °F 1.1 °F 1011.1 in East 2.9 mph 6.4 mph 73 % 0.0 in
12:50 5.5 °F 1.1 °F 1011.1 in ESE 3.9 mph 10.5 mph 73 % 0.0 in
12:55 5.5 °F 1.1 °F 1010.0 in ESE 5.1 mph 10.5 mph 73 % 0.0 in
13:00 5.5 °F 0.3 °F 1010.0 in ESE 6.4 mph 13.7 mph 69 % 0.0 in
13:05 5.5 °F 0.3 °F 1010.0 in ESE 6.4 mph 13.7 mph 69 % 0.0 in
13:10 5.5 °F -0.6 °F 1010.0 in East 4.0 mph 7.6 mph 65 % 0.0 in
13:15 5.6 °F -0.4 °F 1010.0 in SSW 2.9 mph 6.1 mph 65 % 0.0 in
13:20 5.5 °F -0.8 °F 1010.0 in SW 3.9 mph 6.9 mph 64 % 0.0 in
13:25 5.5 °F -0.8 °F 1009.0 in WSW 3.9 mph 7.9 mph 64 % 0.0 in
13:30 5.5 °F -0.8 °F 1009.0 in SW 2.9 mph 7.9 mph 64 % 0.0 in
13:35 5.5 °F -0.8 °F 1009.0 in ESE 4.2 mph 12.2 mph 64 % 0.0 in
13:40 5.5 °F -0.8 °F 1009.0 in SE 5.8 mph 12.2 mph 64 % 0.0 in
13:45 5.5 °F -0.8 °F 1009.0 in West 4.7 mph 10.1 mph 64 % 0.0 in
13:50 5.5 °F -0.8 °F 1009.0 in SSE 3.7 mph 7.6 mph 64 % 0.0 in
13:55 5.5 °F -0.8 °F 1009.0 in SE 4.2 mph 10.1 mph 64 % 0.0 in
14:00 5.5 °F -0.8 °F 1009.0 in SW 5.3 mph 10.1 mph 64 % 0.0 in
14:05 5.5 °F -0.8 °F 1009.0 in WSW 7.2 mph 11.9 mph 64 % 0.0 in
14:10 5.5 °F -0.8 °F 1008.0 in WSW 7.7 mph 12.2 mph 64 % 0.0 in
14:15 5.5 °F -0.8 °F 1008.0 in SW 5.8 mph 12.2 mph 64 % 0.0 in
14:20 5.5 °F -0.8 °F 1008.0 in WSW 4.2 mph 6.9 mph 64 % 0.0 in
14:25 5.5 °F -0.8 °F 1009.0 in WSW 3.1 mph 11.1 mph 64 % 0.0 in
14:30 5.5 °F -0.8 °F 1009.0 in WSW 4.2 mph 11.9 mph 64 % 0.0 in
14:35 5.5 °F -0.8 °F 1009.0 in SSW 4.5 mph 11.9 mph 64 % 0.0 in
14:40 5.4 °F -3.4 °F 1009.0 in SE 3.5 mph 7.9 mph 53 % 0.0 in
14:45 5.4 °F -3.4 °F 1009.0 in SW 3.9 mph 9.3 mph 53 % 0.0 in
14:50 5.4 °F -3.4 °F 1009.0 in WSW 5.1 mph 9.3 mph 53 % 0.0 in
14:55 4.8 °F -4.2 °F 1009.0 in WSW 6.4 mph 9.0 mph 52 % 0.0 in
15:00 4.6 °F -4.4 °F 1009.0 in SW 5.5 mph 8.7 mph 52 % 0.0 in
15:05 4.5 °F -4.5 °F 1009.0 in SW 3.5 mph 5.5 mph 52 % 0.0 in
15:10 4.4 °F -4.9 °F 1009.0 in SW 3.5 mph 5.8 mph 51 % 0.0 in
15:15 4.4 °F -4.9 °F 1009.0 in SW 3.4 mph 5.8 mph 51 % 0.0 in
15:20 4.4 °F -4.9 °F 1009.0 in WSW 1.8 mph 3.5 mph 51 % 0.0 in
15:25 4.4 °F -4.9 °F 1009.0 in West 1.8 mph 4.3 mph 51 % 0.0 in
15:30 4.4 °F -4.9 °F 1009.0 in WSW 2.4 mph 4.3 mph 51 % 0.0 in
15:35 3.8 °F -5.4 °F 1009.0 in WSW 1.0 mph 4.0 mph 51 % 0.0 in
15:40 3.8 °F -5.4 °F 1009.0 in Calm     51 % 0.0 in
15:45 3.8 °F -5.4 °F 1009.0 in Calm     51 % 0.0 in
15:50 3.6 °F -5.3 °F 1009.0 in Calm     52 % 0.0 in
15:55 3.5 °F -5.4 °F 1009.0 in Calm     52 % 0.0 in
16:00 3.5 °F -5.4 °F 1009.0 in SW 0.6 mph 4.3 mph 52 % 0.0 in
16:05 3.5 °F -5.4 °F 1009.0 in SW 0.8 mph 4.3 mph 52 % 0.0 in
16:10 3.1 °F -5.6 °F 1008.0 in SW 1.0 mph 3.2 mph 53 % 0.0 in
16:15 3.1 °F -5.6 °F 1008.0 in SW 2.3 mph 3.5 mph 53 % 0.0 in
16:20 2.8 °F -5.6 °F 1008.0 in SW 2.4 mph 3.5 mph 54 % 0.0 in
16:25 2.7 °F -5.7 °F 1008.0 in SW 1.1 mph 3.5 mph 54 % 0.0 in
16:30 2.6 °F -5.8 °F 1008.0 in West 0.6 mph 4.3 mph 54 % 0.0 in
16:35 2.4 °F -5.7 °F 1008.0 in WNW 2.4 mph 5.0 mph 55 % 0.0 in
16:40 2.4 °F -5.7 °F 1008.0 in NW 2.4 mph 5.0 mph 55 % 0.0 in
16:45 2.1 °F -6.0 °F 1008.0 in NW 1.8 mph 4.7 mph 55 % 0.0 in
16:50 2.1 °F -6.0 °F 1008.0 in NW 2.6 mph 4.7 mph 55 % 0.0 in
16:55 2.1 °F -6.0 °F 1008.0 in NW 1.3 mph 4.7 mph 55 % 0.0 in
17:00 2.1 °F -6.0 °F 1008.0 in NW 0.2 mph 2.6 mph 55 % 0.0 in
17:05 2.1 °F -6.0 °F 1008.0 in Calm     55 % 0.0 in
17:10 2.1 °F -6.0 °F 1008.0 in Calm     55 % 0.0 in
17:15 1.6 °F -5.8 °F 1008.0 in Calm     58 % 0.0 in
17:20 1.6 °F -5.8 °F 1008.0 in Calm   3.2 mph 58 % 0.0 in
17:25 1.6 °F -5.8 °F 1008.0 in West 0.2 mph 3.2 mph 58 % 0.0 in
17:30 1.6 °F -5.8 °F 1008.0 in West 0.2 mph 2.6 mph 58 % 0.0 in
17:35 1.6 °F -5.8 °F 1008.0 in Calm     58 % 0.0 in
17:40 1.6 °F -5.8 °F 1009.0 in NNW 0.5 mph 3.5 mph 58 % 0.0 in
17:45 1.6 °F -5.8 °F 1009.0 in NNW 0.6 mph 3.5 mph 58 % 0.0 in
17:50 1.6 °F -5.8 °F 1009.0 in NNW 0.2 mph 3.5 mph 58 % 0.0 in
17:54 0.4 °F -6.3 °F 1009.0 in SW 0.2 mph 3.5 mph 61 % 0.0 in
17:59 0.4 °F -6.3 °F 1009.0 in SW 0.3 mph 2.6 mph 61 % 0.0 in
18:04 0.4 °F -6.3 °F 1009.0 in NW 0.2 mph 2.1 mph 61 % 0.0 in
18:09 0.4 °F -6.3 °F 1009.0 in SW 0.2 mph 1.8 mph 61 % 0.0 in
18:14 -0.3 °F -6.5 °F 1009.0 in SW 0.6 mph 3.2 mph 63 % 0.0 in
18:19 -0.3 °F -6.5 °F 1009.0 in SW 1.0 mph 3.2 mph 63 % 0.0 in
18:24 -0.3 °F -6.5 °F 1009.0 in SW 0.5 mph 2.6 mph 63 % 0.0 in
18:29 -0.3 °F -6.5 °F 1009.0 in Calm     63 % 0.0 in
18:34 -0.3 °F -6.5 °F 1009.0 in Calm     63 % 0.0 in
18:39 -0.3 °F -6.5 °F 1009.0 in Calm     63 % 0.0 in
18:44 -1.2 °F -6.9 °F 1009.0 in Calm     65 % 0.0 in
18:49 -1.2 °F -6.9 °F 1009.0 in Calm     65 % 0.0 in
18:54 -1.5 °F -7.1 °F 1009.0 in Calm     66 % 0.0 in
18:59 -1.5 °F -7.1 °F 1009.0 in Calm     66 % 0.0 in
19:04 -1.5 °F -7.1 °F 1009.0 in Calm     66 % 0.0 in
19:09 -1.7 °F -7.1 °F 1008.0 in Calm     67 % 0.0 in
19:14 -1.7 °F -7.1 °F 1008.0 in Calm     67 % 0.0 in
19:19 -1.7 °F -7.1 °F 1008.0 in Calm     67 % 0.0 in
19:24 -2.0 °F -7.1 °F 1009.0 in Calm     68 % 0.0 in
19:29 -2.1 °F -7.1 °F 1009.0 in Calm     69 % 0.0 in
19:34 -2.2 °F -7.1 °F 1009.0 in Calm   3.2 mph 69 % 0.0 in
19:39 -2.2 °F -7.1 °F 1009.0 in SW 1.3 mph 4.3 mph 69 % 0.0 in
19:44 -2.2 °F -7.1 °F 1009.0 in SSW 1.3 mph 4.3 mph 69 % 0.0 in
19:49 -2.3 °F -7.1 °F 1009.0 in Calm     70 % 0.0 in
19:54 -2.3 °F -7.1 °F 1009.0 in Calm     70 % 0.0 in
19:59 -2.4 °F -6.9 °F 1009.0 in Calm     71 % 0.0 in
20:04 -2.4 °F -6.9 °F 1009.0 in Calm     71 % 0.0 in
20:09 -2.5 °F -7.1 °F 1008.0 in Calm     71 % 0.0 in
20:14 -2.5 °F -6.8 °F 1008.0 in Calm     72 % 0.0 in
20:19 -2.6 °F -6.9 °F 1008.0 in Calm     72 % 0.0 in
20:24 -2.6 °F -6.9 °F 1008.0 in Calm     72 % 0.0 in
20:29 -2.6 °F -6.9 °F 1008.0 in Calm     72 % 0.0 in
20:34 -2.7 °F -6.9 °F 1008.0 in Calm     73 % 0.0 in
20:39 -2.8 °F -6.9 °F 1008.0 in Calm     73 % 0.0 in
20:44 -2.8 °F -6.9 °F 1008.0 in Calm     73 % 0.0 in
20:49 -2.8 °F -6.9 °F 1008.0 in Calm     73 % 0.0 in
20:54 -2.8 °F -6.8 °F 1008.0 in Calm     74 % 0.0 in
20:59 -2.8 °F -6.8 °F 1008.0 in Calm     74 % 0.0 in
21:04 -2.8 °F -6.8 °F 1008.0 in Calm     74 % 0.0 in
21:09 -2.8 °F -6.8 °F 1008.0 in Calm     74 % 0.0 in
21:14 -2.8 °F -6.6 °F 1008.0 in Calm     75 % 0.0 in
21:19 -2.8 °F -6.6 °F 1008.0 in Calm     75 % 0.0 in
21:24 -2.7 °F -6.5 °F 1008.0 in Calm     75 % 0.0 in
21:29 -2.7 °F -6.5 °F 1008.0 in Calm     75 % 0.0 in
21:34 -2.7 °F -6.3 °F 1008.0 in Calm     76 % 0.0 in
21:39 -2.7 °F -6.3 °F 1008.0 in Calm     76 % 0.0 in
21:44 -2.6 °F -6.2 °F 1008.0 in Calm     76 % 0.0 in
21:49 -2.6 °F -6.2 °F 1008.0 in Calm     76 % 0.0 in
21:54 -2.6 °F -6.1 °F 1008.0 in Calm     77 % 0.0 in
22:00 -2.5 °F -6.0 °F 1008.0 in Calm     77 % 0.0 in
22:05 -2.4 °F -5.9 °F 1008.0 in Calm     77 % 0.0 in
22:10 -2.4 °F -5.9 °F 1008.0 in Calm     77 % 0.0 in
22:15 -2.3 °F -5.6 °F 1008.0 in Calm     78 % 0.0 in
22:20 -2.3 °F -5.6 °F 1008.0 in Calm     78 % 0.0 in
22:25 -2.3 °F -5.6 °F 1008.0 in Calm     78 % 0.0 in
22:30 -2.3 °F -5.6 °F 1008.0 in Calm     78 % 0.0 in
22:35 -2.2 °F -5.3 °F 1008.0 in Calm     79 % 0.0 in
22:40 -2.1 °F -5.3 °F 1008.0 in Calm     79 % 0.0 in
22:45 -2.1 °F -5.3 °F 1008.0 in Calm     79 % 0.0 in
22:50 -2.0 °F -5.2 °F 1008.0 in Calm     79 % 0.0 in
22:55 -1.9 °F -5.1 °F 1008.0 in Calm     79 % 0.0 in
23:00 -1.9 °F -5.1 °F 1008.0 in Calm     79 % 0.0 in
23:05 -1.9 °F -5.1 °F 1008.0 in Calm     79 % 0.0 in
23:10 -1.8 °F -4.9 °F 1008.0 in Calm     79 % 0.0 in
23:15 -1.8 °F -4.8 °F 1008.0 in Calm     80 % 0.0 in
23:20 -1.8 °F -4.8 °F 1008.0 in Calm     80 % 0.0 in
23:25 -1.7 °F -4.7 °F 1008.0 in Calm     80 % 0.0 in
23:30 -1.7 °F -4.7 °F 1008.0 in Calm     80 % 0.0 in
23:35 -1.7 °F -4.7 °F 1008.0 in Calm     80 % 0.0 in
23:40 -1.6 °F -4.6 °F 1008.0 in Calm     80 % 0.0 in
23:45 -1.6 °F -4.6 °F 1008.0 in Calm     80 % 0.0 in
23:50 -1.6 °F -4.6 °F 1008.0 in Calm     80 % 0.0 in
23:55 -1.6 °F -4.6 °F 1007.0 in Calm     80 % 0.0 in
Vremenska postaja Senovo
Podatki zbrani iz Weather Underground - 3 mb

Script developed by  Jim McMurry - jmcmurry@mwt.net Adapted for the template by  Wim van der Kuil - Leuven-Template.eu

Vremenski podatki so objavljeni na:

European Weather Network

WeatherCloud

Weather Underground

AWEKAS

HAMweather, WeatherForYou, PWS Weather

MapView

Geostik

Slovenia weather network

Oprema, ki se uporablja:

Vremenski program
Cumulus

Vremenski server
Asus

Cumulus

Asus